Time;durP1;ratioP1;P1;durP2;ratioP2;P2;SDS_P1;SDS_P2;PMS_P1;PMS_P2;Temp;Humidity;BMP_temperature;BMP_pressure;BME280_temperature;BME280_humidity;BME280_pressure;Samples;Min_cycle;Max_cycle;Signal;HPM_P1;HPM_P2
2022/01/26 00:00:56;;;;;;;93.10;33.28;;;;;;;;;;5249526;28;20048;-86
2022/01/26 00:06:23;;;;;;;93.80;32.00;;;;;;;;;;5245337;28;20053;-83
2022/01/26 00:08:56;;;;;;;95.20;33.28;;;;;;;;;;5243101;28;20033;-83
2022/01/26 00:11:31;;;;;;;96.60;33.43;;;;;;;;;;5240701;28;20045;-84
2022/01/26 00:14:09;;;;;;;98.25;33.00;;;1.60;99.90;;;;;;5199211;28;20059;-83
2022/01/26 00:16:47;;;;;;;93.13;33.05;;;;;;;;;;5234930;28;21576;-84
2022/01/26 00:19:29;;;;;;;90.63;33.88;;;;;;;;;;5233072;28;20540;-83
2022/01/26 00:22:02;;;;;;;93.22;34.08;;;;;;;;;;5245841;28;20041;-82
2022/01/26 00:27:38;;;;;;;95.28;35.33;;;;;;;;;;5255894;28;20044;-83
2022/01/26 00:34:17;;;;;;;110.53;33.95;;;;;;;;;;5240832;28;20048;-84
2022/01/26 00:38:50;;;;;;;97.88;33.90;;;;;;;;;;5241116;28;20040;-83
2022/01/26 00:41:34;;;;;;;100.40;35.97;;;;;;;;;;5218210;28;20078;-83
2022/01/26 00:44:08;;;;;;;105.25;35.75;;;;;;;;;;5245169;28;20314;-83
2022/01/26 00:46:47;;;;;;;113.10;37.13;;;;;;;;;;5241956;28;20480;-84
2022/01/26 00:49:21;;;;;;;116.80;38.17;;;;;;;;;;5220841;28;20056;-84
2022/01/26 00:51:54;;;;;;;103.85;32.53;;;;;;;;;;5240680;28;20036;-85
2022/01/26 00:54:27;;;;;;;109.25;35.95;;;;;;;;;;5239413;28;20052;-83
2022/01/26 00:57:00;;;;;;;124.88;37.05;;;;;;;;;;5221858;28;20188;-83
2022/01/26 00:59:33;;;;;;;106.68;33.85;;;;;;;;;;5204842;28;20043;-83
2022/01/26 01:02:06;;;;;;;97.30;32.53;;;;;;;;;;5230348;28;20044;-82
2022/01/26 01:04:40;;;;;;;175.35;34.00;;;;;;;;;;5234748;28;20303;-83
2022/01/26 01:07:18;;;;;;;;;;;1.10;99.90;;;;;;5240679;28;20036;-84
2022/01/26 01:09:51;;;;;;;112.70;33.88;;;;;;;;;;5239373;28;19924;-84
2022/01/26 01:12:24;;;;;;;113.07;34.57;;;;;;;;;;5246105;28;20045;-84
2022/01/26 01:14:57;;;;;;;126.13;34.10;;;;;;;;;;5241728;28;20306;-83
2022/01/26 01:17:37;;;;;;;136.05;35.63;;;;;;;;;;5241862;28;20041;-84
2022/01/26 01:26:27;;;;;;;112.00;34.60;;;;;;;;;;5206378;28;20044;-83
2022/01/26 01:31:51;;;;;;;94.00;32.85;;;0.90;99.90;;;;;;5240614;28;20052;-82
2022/01/26 01:34:39;;;;;;;97.97;32.40;;;0.80;99.90;;;;;;5240640;28;20041;-83
2022/01/26 01:37:15;;;;;;;91.53;31.05;;;1.00;99.90;;;;;;5241697;28;20048;-82
2022/01/26 01:39:48;;;;;;;89.95;31.83;;;;;;;;;;5241428;28;20048;-84
2022/01/26 01:42:21;;;;;;;91.63;29.33;;;;;;;;;;5241776;28;20051;-83
2022/01/26 01:44:54;;;;;;;115.30;34.03;;;;;;;;;;5242219;28;20053;-83
2022/01/26 01:47:27;;;;;;;85.77;30.40;;;;;;;;;;5243208;28;20036;-83
2022/01/26 01:50:03;;;;;;;72.40;28.77;;;;;;;;;;5200805;28;20291;-84
2022/01/26 01:52:36;;;;;;;112.30;30.27;;;;;;;;;;5225718;28;20309;-82
2022/01/26 01:55:08;;;;;;;176.20;28.95;;;;;;;;;;5242163;28;20060;-83
2022/01/26 01:57:41;;;;;;;231.15;31.73;;;;;;;;;;5222237;28;20765;-82
2022/01/26 02:00:14;;;;;;;108.17;27.37;;;;;;;;;;5240522;28;20051;-83
2022/01/26 02:02:51;;;;;;;91.32;26.55;;;;;;;;;;5214510;28;20302;-84
2022/01/26 02:05:24;;;;;;;62.20;24.67;;;;;;;;;;5224058;28;20044;-82
2022/01/26 02:07:57;;;;;;;71.10;25.95;;;;;;;;;;5238588;28;20412;-84
2022/01/26 02:10:31;;;;;;;66.57;26.20;;;;;;;;;;5243339;28;20463;-83
2022/01/26 02:13:15;;;;;;;64.60;26.40;;;0.60;99.90;;;;;;5238695;28;20308;-83
2022/01/26 02:16:42;;;;;;;121.65;27.13;;;;;;;;;;5238877;28;20681;-83
2022/01/26 02:55:33;;;;;;;81.05;26.77;;;;;;;;;;5234117;28;20045;-82
2022/01/26 03:01:11;;;;;;;77.65;26.50;;;;;;;;;;5240419;28;20048;-83
2022/01/26 03:03:55;;;;;;;71.55;25.88;;;;;;;;;;5231237;28;20048;-83
2022/01/26 03:06:37;;;;;;;104.43;23.95;;;;;;;;;;5204766;28;20283;-83
2022/01/26 03:09:14;;;;;;;68.18;24.30;;;;;;;;;;5223542;28;20053;-83
2022/01/26 03:11:48;;;;;;;54.28;23.33;;;;;;;;;;5222941;28;20059;-83
2022/01/26 03:17:09;;;;;;;187.57;26.83;;;0.40;99.90;;;;;;5215329;28;20059;-84
2022/01/26 03:19:48;;;;;;;73.10;24.10;;;;;;;;;;5241784;28;20079;-83
2022/01/26 03:36:12;;;;;;;73.80;21.88;;;;;;;;;;5246835;28;20056;-83
2022/01/26 03:38:48;;;;;;;54.28;20.25;;;;;;;;;;5240991;28;20055;-83
2022/01/26 03:41:39;;;;;;;58.30;21.50;;;;;;;;;;5206774;28;20056;-83
2022/01/26 03:44:13;;;;;;;50.15;20.30;;;;;;;;;;5250041;28;20056;-83
2022/01/26 03:46:47;;;;;;;50.03;20.00;;;-0.10;99.90;;;;;;5228471;28;20040;-83
2022/01/26 03:49:20;;;;;;;52.67;20.80;;;;;;;;;;5242226;28;20051;-82
2022/01/26 03:51:53;;;;;;;64.90;21.03;;;;;;;;;;5219673;28;20056;-81
2022/01/26 03:54:26;;;;;;;47.85;20.40;;;;;;;;;;5227165;28;20480;-82
2022/01/26 03:56:59;;;;;;;44.72;20.83;;;;;;;;;;5223475;28;20927;-82
2022/01/26 03:59:40;;;;;;;45.58;20.08;;;;;;;;;;5199327;28;20516;-83
2022/01/26 04:02:13;;;;;;;39.10;19.48;;;;;;;;;;5212957;28;20048;-83
2022/01/26 04:04:51;;;;;;;53.28;19.00;;;;;;;;;;5230962;28;20118;-81
2022/01/26 04:07:24;;;;;;;44.63;19.20;;;;;;;;;;5226868;28;20389;-81
2022/01/26 04:10:05;;;;;;;53.70;20.60;;;;;;;;;;5234661;28;20045;-83
2022/01/26 04:12:39;;;;;;;46.80;19.63;;;;;;;;;;5228858;28;20041;-82
2022/01/26 04:15:24;;;;;;;62.70;19.65;;;;;;;;;;5228837;28;20496;-84
2022/01/26 04:17:58;;;;;;;64.43;21.20;;;;;;;;;;5222630;28;20078;-82
2022/01/26 04:20:36;;;;;;;48.67;18.92;;;;;;;;;;5223885;28;20431;-82
2022/01/26 04:25:47;;;;;;;72.78;20.95;;;;;;;;;;5209990;28;20053;-82
2022/01/26 04:28:26;;;;;;;41.90;17.63;;;;;;;;;;5208990;28;20049;-82
2022/01/26 04:30:59;;;;;;;51.15;17.88;;;;;;;;;;5237345;28;20459;-83
2022/01/26 04:33:34;;;;;;;77.68;17.88;;;;;;;;;;5232881;28;20040;-81
2022/01/26 04:36:11;;;;;;;44.05;16.13;;;;;;;;;;5207409;28;20060;-82
2022/01/26 04:38:49;;;;;;;44.97;16.73;;;;;;;;;;5240434;28;20040;-82
2022/01/26 04:41:37;;;;;;;77.20;17.33;;;;;;;;;;5223480;28;20594;-83
2022/01/26 04:44:19;;;;;;;61.95;18.05;;;;;;;;;;5239268;28;20044;-83
2022/01/26 04:46:53;;;;;;;35.92;17.42;;;-0.60;99.90;;;;;;5239377;28;20043;-83
2022/01/26 04:49:25;;;;;;;;;;;-0.60;99.90;;;;;;5200806;28;20515;-82
2022/01/26 04:51:58;;;;;;;46.22;18.13;;;;;;;;;;5239854;28;19931;-83
2022/01/26 04:54:31;;;;;;;37.00;17.47;;;;;;;;;;5243788;28;20041;-83
2022/01/26 04:57:04;;;;;;;36.05;16.98;;;;;;;;;;5221418;28;20064;-83
2022/01/26 04:59:37;;;;;;;62.33;19.20;;;;;;;;;;5236669;28;20412;-83
2022/01/26 05:02:10;;;;;;;49.57;20.23;;;;;;;;;;5238789;28;20044;-83
2022/01/26 05:04:43;;;;;;;46.00;19.15;;;;;;;;;;5241796;28;20059;-82
2022/01/26 05:07:16;;;;;;;45.45;20.35;;;;;;;;;;5237505;28;20045;-83
2022/01/26 05:09:49;;;;;;;47.40;20.50;;;;;;;;;;5230654;28;20960;-82
2022/01/26 05:12:23;;;;;;;44.80;19.40;;;;;;;;;;5234873;28;20044;-82
2022/01/26 05:14:55;;;;;;;43.50;19.23;;;;;;;;;;5238078;28;20092;-84
2022/01/26 05:17:28;;;;;;;41.58;19.67;;;;;;;;;;5232108;28;20053;-81
2022/01/26 05:20:01;;;;;;;44.60;20.03;;;;;;;;;;5233978;28;20036;-83
2022/01/26 05:22:34;;;;;;;42.10;18.60;;;;;;;;;;5220040;28;20048;-83
2022/01/26 05:25:07;;;;;;;46.55;21.25;;;-0.60;99.90;;;;;;5234811;28;20305;-83
2022/01/26 05:27:40;;;;;;;46.72;19.23;;;;;;;;;;5233957;28;20048;-82
2022/01/26 05:30:13;;;;;;;43.42;20.52;;;;;;;;;;5234243;28;20446;-83
2022/01/26 05:32:46;;;;;;;58.57;21.23;;;;;;;;;;5239521;28;20044;-83
2022/01/26 05:35:18;;;;;;;50.03;21.20;;;;;;;;;;5205648;28;20302;-83
2022/01/26 05:37:51;;;;;;;49.38;20.52;;;;;;;;;;5244530;28;20090;-83
2022/01/26 05:40:24;;;;;;;48.53;20.70;;;;;;;;;;5241418;28;20056;-83
2022/01/26 05:42:57;;;;;;;44.78;19.95;;;;;;;;;;5244924;28;20052;-85
2022/01/26 05:45:36;;;;;;;40.27;19.13;;;;;;;;;;5240233;28;20040;-83
2022/01/26 05:48:12;;;;;;;41.25;19.33;;;;;;;;;;5227187;28;20311;-83
2022/01/26 05:51:03;;;;;;;44.28;18.63;;;;;;;;;;5244535;28;20044;-83
2022/01/26 05:53:37;;;;;;;43.63;20.00;;;;;;;;;;5223145;28;20044;-82
2022/01/26 05:56:10;;;;;;;39.85;19.42;;;;;;;;;;5238876;28;20064;-84
2022/01/26 05:58:42;;;;;;;40.23;18.73;;;;;;;;;;5240044;28;20048;-83
2022/01/26 06:01:20;;;;;;;42.47;19.45;;;;;;;;;;5189561;28;20520;-82
2022/01/26 06:03:53;;;;;;;37.97;17.88;;;;;;;;;;5235316;28;20051;-83
2022/01/26 06:06:26;;;;;;;38.25;17.85;;;;;;;;;;5228544;28;20539;-82
2022/01/26 06:08:58;;;;;;;37.07;17.63;;;;;;;;;;5214678;28;20047;-83
2022/01/26 06:11:31;;;;;;;40.20;17.77;;;;;;;;;;5208957;28;20048;-82
2022/01/26 06:14:04;;;;;;;40.77;19.40;;;;;;;;;;5209482;28;21024;-83
2022/01/26 06:16:37;;;;;;;40.13;19.48;;;;;;;;;;5219060;28;20502;-83
2022/01/26 06:19:10;;;;;;;41.38;19.60;;;;;;;;;;5219641;28;20084;-83
2022/01/26 06:21:43;;;;;;;42.77;17.73;;;;;;;;;;5232996;28;20048;-81
2022/01/26 06:24:16;;;;;;;41.03;18.17;;;;;;;;;;5238398;28;20059;-84
2022/01/26 06:26:49;;;;;;;48.53;20.03;;;;;;;;;;5218921;28;20071;-84
2022/01/26 06:29:22;;;;;;;48.83;22.35;;;;;;;;;;5222763;28;20051;-83
2022/01/26 06:31:54;;;;;;;45.10;19.80;;;;;;;;;;5241145;28;20060;-82
2022/01/26 06:34:27;;;;;;;41.80;19.23;;;;;;;;;;5226778;28;20048;-83
2022/01/26 06:37:00;;;;;;;43.20;19.75;;;;;;;;;;5237399;28;20040;-83
2022/01/26 06:39:33;;;;;;;39.27;18.00;;;;;;;;;;5241362;28;20048;-82
2022/01/26 06:42:12;;;;;;;36.97;17.30;;;;;;;;;;5244790;28;20041;-81
2022/01/26 06:45:06;;;;;;;38.22;17.60;;;;;;;;;;5244316;28;20405;-82
2022/01/26 06:47:55;;;;;;;39.92;19.67;;;;;;;;;;5225269;28;20048;-82
2022/01/26 06:50:28;;;;;;;38.75;18.08;;;;;;;;;;5242542;28;20044;-82
2022/01/26 06:53:01;;;;;;;39.60;17.60;;;;;;;;;;5242009;28;20051;-83
2022/01/26 06:55:34;;;;;;;38.80;18.00;;;;;;;;;;5242164;28;20052;-82
2022/01/26 06:58:07;;;;;;;39.90;18.13;;;;;;;;;;5241734;28;20052;-82
2022/01/26 07:00:40;;;;;;;42.87;18.70;;;;;;;;;;5240180;28;20059;-84
2022/01/26 07:03:13;;;;;;;37.13;16.83;;;;;;;;;;5242695;28;20055;-82
2022/01/26 07:05:45;;;;;;;40.00;18.07;;;;;;;;;;5238475;28;20512;-81
2022/01/26 07:08:18;;;;;;;39.47;18.40;;;;;;;;;;5214450;28;20328;-82
2022/01/26 07:10:53;;;;;;;41.07;19.47;;;;;;;;;;5241547;28;20051;-82
2022/01/26 07:13:26;;;;;;;42.53;18.60;;;;;;;;;;5241617;28;20136;-84
2022/01/26 07:21:43;;;;;;;39.92;18.77;;;;;;;;;;5222292;28;20535;-84
2022/01/26 07:24:16;;;;;;;38.70;18.50;;;;;;;;;;5242202;28;20426;-83
2022/01/26 07:26:53;;;;;;;42.53;19.63;;;;;;;;;;5238215;28;20049;-84
2022/01/26 07:29:26;;;;;;;39.83;19.52;;;;;;;;;;5240182;28;20287;-84
2022/01/26 07:31:59;;;;;;;40.90;19.98;;;;;;;;;;5256977;22;20069;-36
2022/01/26 07:34:32;;;;;;;48.38;21.75;;;;;;;;;;5253511;28;20044;-37
2022/01/26 07:37:07;;;;;;;44.40;20.73;;;;;;;;;;5254233;28;20407;-36
2022/01/26 07:39:43;;;;;;;46.42;21.17;;;;;;;;;;5251836;28;20059;-37
2022/01/26 07:42:16;;;;;;;49.58;22.15;;;;;;;;;;5248677;28;20503;-36
2022/01/26 07:44:52;;;;;;;44.53;20.80;;;;;;;;;;5250332;28;20396;-37
2022/01/26 07:47:25;;;;;;;42.13;19.90;;;;;;;;;;5249904;28;20062;-36
2022/01/26 07:50:02;;;;;;;46.92;20.40;;;-1.20;99.90;;;;;;5249182;28;20051;-36
2022/01/26 07:52:39;;;;;;;46.97;21.27;;;;;;;;;;5235054;28;20044;-36
2022/01/26 07:55:16;;;;;;;40.28;20.23;;;-1.10;99.90;;;;;;5252890;28;20048;-36
2022/01/26 07:57:51;;;;;;;42.05;20.73;;;;;;;;;;5248555;28;20043;-37
2022/01/26 08:00:24;;;;;;;46.33;20.50;;;-1.50;99.90;;;;;;5251526;28;20162;-37
2022/01/26 08:02:57;;;;;;;44.03;20.08;;;;;;;;;;5251873;28;20066;-36
2022/01/26 08:05:30;;;;;;;31.55;14.52;;;;;;;;;;5248133;28;20051;-37
2022/01/26 08:08:03;;;;;;;43.60;20.60;;;;;;;;;;5234563;28;20066;-35
2022/01/26 08:10:35;;;;;;;43.17;20.60;;;;;;;;;;5252650;28;20143;-37
2022/01/26 08:13:08;;;;;;;47.03;21.53;;;;;;;;;;5250569;28;20519;-37
2022/01/26 08:15:41;;;;;;;41.20;18.98;;;;;;;;;;5249402;28;20282;-36
2022/01/26 08:18:14;;;;;;;46.57;21.93;;;;;;;;;;5252794;28;20063;-36
2022/01/26 08:20:47;;;;;;;41.92;20.17;;;;;;;;;;5250701;28;20439;-37
2022/01/26 08:23:22;;;;;;;48.15;22.75;;;;;;;;;;5256088;28;20050;-35
2022/01/26 08:25:54;;;;;;;47.53;22.73;;;;;;;;;;5254269;28;20067;-38
2022/01/26 08:28:33;;;;;;;45.07;22.97;;;;;;;;;;5255633;28;20155;-35
2022/01/26 08:31:06;;;;;;;51.63;22.55;;;;;;;;;;5258109;28;20051;-39
2022/01/26 08:33:39;;;;;;;46.95;21.75;;;;;;;;;;5256022;28;20047;-36
2022/01/26 08:36:12;;;;;;;49.60;22.00;;;;;;;;;;5252365;28;21264;-37
2022/01/26 08:38:45;;;;;;;47.70;21.65;;;;;;;;;;5255581;28;20067;-36
2022/01/26 08:41:18;;;;;;;45.27;21.93;;;;;;;;;;5254990;28;20522;-38
2022/01/26 08:43:50;;;;;;;39.13;17.13;;;;;;;;;;5238853;28;20500;-37
2022/01/26 08:46:23;;;;;;;31.95;16.05;;;;;;;;;;5254645;28;20409;-36
2022/01/26 08:48:57;;;;;;;42.45;20.02;;;;;;;;;;5255426;28;20040;-36
2022/01/26 08:51:29;;;;;;;45.87;21.63;;;;;;;;;;5239631;28;20344;-37
2022/01/26 08:54:02;;;;;;;41.58;20.55;;;;;;;;;;5256314;28;20047;-37
2022/01/26 08:56:35;;;;;;;43.90;20.43;;;;;;;;;;5251213;28;20050;-36
2022/01/26 08:59:08;;;;;;;46.28;23.05;;;;;;;;;;5256536;28;20044;-37
2022/01/26 09:01:40;;;;;;;45.23;22.40;;;;;;;;;;5256620;28;20226;-36
2022/01/26 09:04:14;;;;;;;45.60;21.33;;;0.50;99.90;;;;;;5256440;28;20051;-37
2022/01/26 09:07:05;;;;;;;47.63;23.85;;;;;;;;;;5255471;28;20056;-37
2022/01/26 09:09:43;;;;;;;43.05;20.92;;;;;;;;;;5238116;28;20048;-38
2022/01/26 09:12:18;;;;;;;38.80;18.77;;;0.80;99.90;;;;;;5252163;28;20040;-37
2022/01/26 09:14:52;;;;;;;39.30;18.25;;;;;;;;;;5256533;28;20059;-37
2022/01/26 09:17:27;;;;;;;35.83;19.67;;;;;;;;;;5255431;28;20194;-40
2022/01/26 09:20:06;;;;;;;40.80;17.92;;;3.00;99.90;;;;;;5256967;28;20048;-37
2022/01/26 09:22:39;;;;;;;36.65;18.50;;;;;;;;;;5256426;28;20419;-39
2022/01/26 09:25:12;;;;;;;30.05;16.10;;;;;;;;;;5257163;28;20055;-37
2022/01/26 09:27:45;;;;;;;28.60;15.97;;;;;;;;;;5232742;28;20389;-38
2022/01/26 09:30:18;;;;;;;36.50;17.73;;;;;;;;;;5257271;28;20063;-36
2022/01/26 09:32:50;;;;;;;35.00;18.33;;;;;;;;;;5256458;28;20807;-37
2022/01/26 09:35:23;;;;;;;32.03;17.15;;;;;;;;;;5255768;28;20518;-37
2022/01/26 09:37:56;;;;;;;38.05;18.80;;;;;;;;;;5251937;28;20590;-37
2022/01/26 09:40:29;;;;;;;34.08;17.60;;;;;;;;;;5256674;28;20048;-37
2022/01/26 09:43:01;;;;;;;38.45;19.20;;;;;;;;;;5254463;28;20427;-37
2022/01/26 09:45:35;;;;;;;38.83;17.73;;;;;;;;;;5254081;28;20301;-37
2022/01/26 09:48:08;;;;;;;39.67;18.00;;;;;;;;;;5254490;28;20457;-37
2022/01/26 09:50:55;;;;;;;;;;;2.30;99.90;;;;;;5257601;28;20040;-37
2022/01/26 09:53:30;;;;;;;39.70;18.95;;;;;;;;;;5255280;28;19931;-38
2022/01/26 09:56:03;;;;;;;36.10;18.80;;;;;;;;;;5253740;28;20254;-37
2022/01/26 09:58:36;;;;;;;38.60;18.55;;;;;;;;;;5213509;28;20051;-37
2022/01/26 10:01:09;;;;;;;38.55;18.25;;;;;;;;;;5256513;28;20052;-37
2022/01/26 10:03:46;;;;;;;38.50;18.33;;;2.50;99.90;;;;;;5253949;28;20507;-37
2022/01/26 10:06:28;;;;;;;38.05;16.98;;;2.60;99.90;;;;;;5252031;28;20048;-38
2022/01/26 10:09:37;;;;;;;34.53;16.10;;;;;;;;;;5229781;28;20048;-38
2022/01/26 10:17:50;;;;;;;37.85;16.25;;;;;;;;;;5252495;28;20417;-36
2022/01/26 10:20:23;;;;;;;30.42;15.52;;;;;;;;;;5246438;28;20044;-37
2022/01/26 10:23:06;;;;;;;34.47;17.27;;;3.00;99.90;;;;;;5255057;28;20074;-37
2022/01/26 10:25:44;;;;;;;31.98;15.93;;;3.10;99.90;;;;;;5229591;28;21328;-38
2022/01/26 10:28:18;;;;;;;32.05;15.73;;;;;;;;;;5253635;28;20052;-37
2022/01/26 10:30:51;;;;;;;33.03;17.10;;;;;;;;;;5251963;28;20126;-37
2022/01/26 10:33:24;;;;;;;32.72;16.08;;;;;;;;;;5252686;28;20071;-36
2022/01/26 10:36:01;;;;;;;37.90;16.67;;;3.20;99.90;;;;;;5253661;28;20385;-37
2022/01/26 10:38:34;;;;;;;31.58;16.02;;;;;;;;;;5254763;28;20500;-36
2022/01/26 10:41:19;;;;;;;31.75;15.02;;;3.40;99.90;;;;;;5234145;28;20091;-37
2022/01/26 10:43:55;;;;;;;32.17;15.30;;;;;;;;;;5252598;28;20063;-37
2022/01/26 10:46:38;;;;;;;34.92;18.48;;;3.60;99.90;;;;;;5253424;28;20039;-37
2022/01/26 10:49:29;;;;;;;36.00;17.50;;;3.70;99.90;;;;;;5230014;28;20040;-37
2022/01/26 10:52:18;;;;;;;38.33;17.70;;;3.60;99.90;;;;;;5254646;28;20043;-37
2022/01/26 10:54:51;;;;;;;39.25;19.05;;;3.80;99.10;;;;;;5249471;28;20483;-38
2022/01/26 10:57:25;;;;;;;36.95;18.17;;;;;;;;;;5251283;28;20448;-37
2022/01/26 10:59:58;;;;;;;;;;;3.80;98.30;;;;;;5254584;28;20053;-36
2022/01/26 11:02:33;;;;;;;36.22;16.08;;;;;;;;;;5235243;28;19924;-38
2022/01/26 11:05:06;;;;;;;36.95;17.48;;;;;;;;;;5236657;28;20055;-37
2022/01/26 11:07:41;;;;;;;43.45;18.05;;;;;;;;;;5254363;28;20042;-37
2022/01/26 11:10:14;;;;;;;31.70;15.93;;;;;;;;;;5255753;28;20397;-37
2022/01/26 11:12:47;;;;;;;34.47;17.30;;;;;;;;;;5247011;28;20055;-37
2022/01/26 11:15:22;;;;;;;37.25;18.10;;;4.00;96.30;;;;;;5255436;28;20055;-37
2022/01/26 11:18:21;;;;;;;36.63;17.60;;;4.10;96.50;;;;;;5253557;28;20048;-36
2022/01/26 11:20:56;;;;;;;36.97;17.33;;;;;;;;;;5250850;28;20053;-37
2022/01/26 11:23:36;;;;;;;33.05;16.52;;;4.30;96.40;;;;;;5252112;28;20047;-38
2022/01/26 11:26:22;;;;;;;36.42;16.90;;;4.40;96.40;;;;;;5253486;28;20582;-37
2022/01/26 11:28:55;;;;;;;36.47;17.25;;;;;;;;;;5254128;28;21607;-36
2022/01/26 11:31:32;;;;;;;33.63;16.60;;;;;;;;;;5255233;28;20222;-37
2022/01/26 11:34:19;;;;;;;32.53;15.95;;;4.40;94.40;;;;;;5251286;28;20485;-37
2022/01/26 11:36:52;;;;;;;31.17;15.75;;;;;;;;;;5249703;28;20048;-36
2022/01/26 11:45:26;;;;;;;37.33;16.13;;;4.60;93.10;;;;;;5243656;28;20048;-41
2022/01/26 11:48:07;;;;;;;31.00;15.90;;;4.70;92.60;;;;;;5253301;28;20423;-37
2022/01/26 11:50:48;;;;;;;31.50;15.07;;;4.70;92.70;;;;;;5255344;28;20055;-36
2022/01/26 11:53:25;;;;;;;31.77;16.52;;;4.70;92.30;;;;;;5234832;28;20410;-35
2022/01/26 11:56:10;;;;;;;34.75;16.38;;;4.70;92.20;;;;;;5252005;28;20057;-38
2022/01/26 11:58:46;;;;;;;31.52;16.83;;;4.90;92.00;;;;;;5251384;28;20044;-36
2022/01/26 12:01:23;;;;;;;32.58;16.48;;;;;;;;;;5253760;28;20044;-36
2022/01/26 12:04:01;;;;;;;32.85;16.65;;;4.90;91.70;;;;;;5252898;28;20158;-37
2022/01/26 12:06:43;;;;;;;35.58;15.75;;;4.90;91.80;;;;;;5234317;28;20064;-37
2022/01/26 12:09:17;;;;;;;42.17;20.67;;;4.90;91.60;;;;;;5253787;28;20048;-36
2022/01/26 12:11:55;;;;;;;37.33;19.27;;;4.90;91.50;;;;;;5238707;28;20271;-37
2022/01/26 12:14:30;;;;;;;33.35;16.40;;;;;;;;;;5228377;28;20055;-37
2022/01/26 12:17:09;;;;;;;34.08;17.52;;;;;;;;;;5202741;28;20040;-36
2022/01/26 12:20:06;;;;;;;31.52;17.08;;;;;;;;;;5234136;28;20518;-37
2022/01/26 13:06:27;;;;;;;42.03;18.50;;;5.00;90.70;;;;;;5243055;28;20048;-31
2022/01/26 13:09:01;;;;;;;36.60;18.85;;;5.10;90.60;;;;;;5231296;28;20041;-31
2022/01/26 13:11:35;;;;;;;38.60;18.45;;;5.10;90.60;;;;;;5204572;28;20045;-31
2022/01/26 13:14:29;;;;;;;45.75;19.98;;;5.10;90.20;;;;;;5206405;28;20048;-31
2022/01/26 13:17:37;;;;;;;34.45;18.45;;;5.10;90.00;;;;;;5204930;28;20048;-32
2022/01/26 13:20:33;;;;;;;37.78;17.98;;;5.10;90.10;;;;;;5213452;22;20048;-76
2022/01/26 13:23:24;;;;;;;35.05;18.13;;;;;;;;;;5199597;28;20048;-77
2022/01/26 13:26:28;;;;;;;39.28;19.17;;;5.10;89.70;;;;;;5205649;28;20045;-76
2022/01/26 13:29:19;;;;;;;40.30;19.20;;;5.10;89.80;;;;;;5199918;28;20604;-77
2022/01/26 13:35:18;;;;;;;37.08;19.58;;;5.10;89.40;;;;;;5199165;28;20512;-77
2022/01/26 13:38:11;;;;;;;45.08;20.02;;;;;;;;;;5205007;28;20447;-76
2022/01/26 13:58:17;;;;;;;43.20;21.10;;;;;;;;;;5201703;28;20493;-77
2022/01/26 14:00:13;;;;;;;42.17;21.55;;;5.10;88.80;;;;;;5189263;28;20060;-77
2022/01/26 14:02:48;;;;;;;38.90;20.27;;;;;;;;;;5199653;28;21877;-79
2022/01/26 14:05:21;;;;;;;42.88;20.77;;;;;;;;;;5204350;28;20048;-76
2022/01/26 14:07:56;;;;;;;46.92;22.67;;;;;;;;;;5183333;28;20053;-77
2022/01/26 14:10:29;;;;;;;45.47;21.75;;;;;;;;;;5186967;28;20041;-78
2022/01/26 14:13:01;;;;;;;44.53;21.15;;;;;;;;;;5194615;28;20050;-77
2022/01/26 14:15:40;;;;;;;42.97;21.08;;;;;;;;;;5181709;28;20041;-78
2022/01/26 14:21:21;;;;;;;44.58;20.17;;;;;;;;;;5180073;28;20064;-77
2022/01/26 14:26:32;;;;;;;47.28;20.85;;;;;;;;;;5175129;28;20048;-77
2022/01/26 14:29:14;;;;;;;40.00;20.70;;;;;;;;;;5162850;28;20606;-77
2022/01/26 14:35:03;;;;;;;44.80;23.45;;;5.10;89.20;;;;;;5195415;28;20033;-77
2022/01/26 14:40:41;;;;;;;47.20;21.85;;;;;;;;;;5176146;28;20045;-78
2022/01/26 14:50:58;;;;;;;48.42;23.77;;;;;;;;;;5184882;28;20048;-78
2022/01/26 15:00:47;;;;;;;57.28;26.67;;;;;;;;;;5172721;28;20052;-79
2022/01/26 15:10:16;;;;;;;50.75;24.17;;;;;;;;;;5183608;28;20048;-79
2022/01/26 15:40:27;;;;;;;51.55;24.73;;;3.60;92.90;;;;;;5158092;28;20045;-78
2022/01/26 15:51:08;;;;;;;70.20;31.95;;;5.20;93.90;;;;;;5171264;28;20068;-76
2022/01/26 16:04:17;;;;;;;75.40;33.42;;;5.40;95.60;;;;;;5168731;28;20068;-76
2022/01/26 16:07:49;;;;;;;67.95;32.45;;;;;;;;;;5154324;28;21250;-76
2022/01/26 16:26:18;;;;;;;76.88;32.55;;;;;;;;;;5179126;28;20449;-78
2022/01/26 16:36:49;;;;;;;88.85;35.97;;;;;;;;;;5167106;28;20060;-79
2022/01/26 17:47:05;;;;;;;95.38;39.75;;;-0.10;99.90;;;;;;5169940;28;20049;-76
2022/01/26 18:15:33;;;;;;;97.63;41.03;;;4.00;99.90;;;;;;5178814;28;20502;-77
2022/01/26 18:27:05;;;;;;;91.47;38.42;;;2.70;99.90;;;;;;5168091;28;20651;-77
2022/01/26 18:32:42;;;;;;;101.95;41.08;;;2.30;99.90;;;;;;5190041;28;20056;-77
2022/01/26 18:49:19;;;;;;;90.28;38.78;;;2.40;99.90;;;;;;5214765;28;20045;-78
2022/01/26 18:51:56;;;;;;;96.90;39.85;;;3.20;99.90;;;;;;5190083;28;20507;-78
2022/01/26 18:54:31;;;;;;;98.03;39.80;;;2.40;99.90;;;;;;5183367;28;20496;-76
2022/01/26 18:57:07;;;;;;;103.47;42.50;;;2.40;99.90;;;;;;5196337;28;20041;-77
2022/01/26 18:59:39;;;;;;;92.38;38.80;;;5.40;99.90;;;;;;5160042;28;20053;-79
2022/01/26 19:02:12;;;;;;;90.75;39.00;;;3.00;99.90;;;;;;5194053;28;20041;-76
2022/01/26 19:05:06;;;;;;;87.22;38.55;;;2.40;99.90;;;;;;5182951;28;20056;-78
2022/01/26 19:07:39;;;;;;;90.90;40.80;;;2.20;99.90;;;;;;5169762;28;20420;-76
2022/01/26 19:10:12;;;;;;;95.28;42.40;;;2.70;99.90;;;;;;5173733;28;20048;-77
2022/01/26 19:12:46;;;;;;;96.30;41.63;;;2.50;99.90;;;;;;5171989;28;20036;-78
2022/01/26 19:15:23;;;;;;;;;;;2.60;99.90;;;;;;5175082;28;20053;-76
2022/01/26 19:20:48;;;;;;;99.82;42.25;;;5.40;99.90;;;;;;5193670;28;20060;-78
2022/01/26 19:26:37;;;;;;;94.35;38.55;;;2.60;99.90;;;;;;5132457;28;20564;-79
2022/01/26 19:29:23;;;;;;;103.53;41.17;;;2.60;99.90;;;;;;5136682;28;20109;-77
2022/01/26 19:51:24;;;;;;;94.85;40.92;;;2.70;99.90;;;;;;5192782;28;20041;-77
2022/01/26 19:53:57;;;;;;;99.13;41.75;;;2.70;99.90;;;;;;5183533;28;20056;-77
2022/01/26 19:56:30;;;;;;;98.82;41.60;;;2.70;99.90;;;;;;5194215;28;21095;-78
2022/01/26 19:59:03;;;;;;;91.63;37.78;;;2.70;99.90;;;;;;5188999;28;20048;-78
2022/01/26 20:01:35;;;;;;;98.22;40.60;;;2.70;99.90;;;;;;5180717;28;20045;-79
2022/01/26 20:04:09;;;;;;;142.23;56.65;;;2.70;99.90;;;;;;5177094;28;20063;-76
2022/01/26 20:06:43;;;;;;;101.57;43.00;;;2.60;99.90;;;;;;5187176;28;20550;-76
2022/01/26 20:09:26;;;;;;;94.45;40.75;;;;;;;;;;5175656;28;20060;-78
2022/01/26 20:12:01;;;;;;;102.78;42.20;;;3.80;99.90;;;;;;5183498;28;20052;-75
2022/01/26 20:14:36;;;;;;;96.65;39.20;;;2.30;99.90;;;;;;5177387;28;20049;-76
2022/01/26 20:17:08;;;;;;;94.03;39.20;;;1.00;99.90;;;;;;5188117;28;20053;-76
2022/01/26 20:19:41;;;;;;;96.10;39.55;;;2.60;99.90;;;;;;5183046;28;20056;-78
2022/01/26 20:22:13;;;;;;;103.60;41.47;;;2.60;99.90;;;;;;5190322;28;20037;-77
2022/01/26 20:24:46;;;;;;;97.43;40.53;;;3.10;99.90;;;;;;5147531;28;20041;-77
2022/01/26 20:27:21;;;;;;;104.45;41.60;;;2.60;99.90;;;;;;5191260;28;20511;-77
2022/01/26 20:30:01;;;;;;;98.78;42.20;;;2.60;99.90;;;;;;5165210;28;20040;-76
2022/01/26 20:32:33;;;;;;;101.95;42.85;;;2.60;99.90;;;;;;5172311;28;20049;-77
2022/01/26 20:35:07;;;;;;;95.40;41.40;;;4.00;99.90;;;;;;5194475;28;20053;-77
2022/01/26 20:37:40;;;;;;;;;;;2.60;99.90;;;;;;5182285;28;20038;-77
2022/01/26 20:40:16;;;;;;;94.78;39.50;;;2.80;99.90;;;;;;5156294;28;19932;-79
2022/01/26 20:42:49;;;;;;;84.47;37.15;;;2.80;99.90;;;;;;5168000;28;20046;-79
2022/01/26 20:45:23;;;;;;;89.28;36.72;;;3.00;99.90;;;;;;5145478;28;21088;-77
2022/01/26 20:47:57;;;;;;;93.38;36.08;;;2.50;99.90;;;;;;5171455;28;20041;-79
2022/01/26 20:50:32;;;;;;;90.72;36.45;;;2.50;99.90;;;;;;5188801;28;20053;-78
2022/01/26 20:53:06;;;;;;;89.55;36.22;;;2.50;99.90;;;;;;5173206;28;20044;-77
2022/01/26 20:55:39;;;;;;;91.57;37.63;;;2.50;99.90;;;;;;5191007;28;20037;-78
2022/01/26 20:58:12;;;;;;;91.07;36.13;;;2.50;99.90;;;;;;5178416;28;20049;-79
2022/01/26 21:01:05;;;;;;;91.07;37.88;;;0.80;99.90;;;;;;5193759;28;20037;-81
2022/01/26 21:03:38;;;;;;;96.63;37.75;;;3.40;99.90;;;;;;5200054;28;20452;-81
2022/01/26 21:06:10;;;;;;;99.20;38.97;;;3.20;99.90;;;;;;5193081;28;20075;-81
2022/01/26 21:08:43;;;;;;;102.30;40.13;;;2.50;99.90;;;;;;5190875;28;20306;-79
2022/01/26 21:11:15;;;;;;;94.57;38.53;;;2.40;99.90;;;;;;5199171;28;20053;-80
2022/01/26 21:13:53;;;;;;;98.88;39.55;;;;;;;;;;5182213;28;20041;-80
2022/01/26 21:16:26;;;;;;;99.43;38.75;;;2.40;99.90;;;;;;5195802;28;20041;-78
2022/01/26 21:18:58;;;;;;;103.25;38.67;;;2.40;99.90;;;;;;5183227;28;21038;-81
2022/01/26 21:21:31;;;;;;;95.15;38.08;;;3.30;99.90;;;;;;5191512;28;20407;-80